createdAt,value
2019-02-20T00:00:06.189Z,18.43
2019-02-20T00:02:35.337Z,19.03
2019-02-20T00:05:05.329Z,17.97
2019-02-20T00:07:34.233Z,17.57
2019-02-20T00:10:03.138Z,17.00
2019-02-20T00:12:31.978Z,16.97
2019-02-20T00:15:00.798Z,17.27
2019-02-20T00:17:29.634Z,17.80
2019-02-20T00:19:58.458Z,19.47
2019-02-20T00:22:27.293Z,18.20
2019-02-20T00:24:56.118Z,18.47
2019-02-20T00:27:25.033Z,18.33
2019-02-20T00:29:54.421Z,17.47
2019-02-20T00:32:23.525Z,19.13
2019-02-20T00:34:52.613Z,19.03
2019-02-20T00:37:21.458Z,19.43
2019-02-20T00:39:50.357Z,17.70
2019-02-20T00:42:19.197Z,17.60
2019-02-20T00:45:06.294Z,19.00
2019-02-20T00:47:59.846Z,19.00
2019-02-20T00:50:30.365Z,19.70
2019-02-20T00:53:22.215Z,18.17
2019-02-20T00:55:51.189Z,18.87
2019-02-20T00:58:20.037Z,19.40
2019-02-20T01:00:48.861Z,19.27
2019-02-20T01:03:17.765Z,20.33
2019-02-20T01:05:46.945Z,17.97
2019-02-20T01:08:15.857Z,17.67
2019-02-20T01:10:44.765Z,18.33
2019-02-20T01:13:13.845Z,18.47
2019-02-20T01:15:42.818Z,19.17
2019-02-20T01:18:11.660Z,17.77
2019-02-20T01:20:40.592Z,17.47
2019-02-20T01:23:09.821Z,18.70
2019-02-20T01:25:38.647Z,17.70
2019-02-20T01:28:07.814Z,18.30
2019-02-20T01:30:36.718Z,17.33
2019-02-20T01:33:05.562Z,18.90
2019-02-20T01:35:34.501Z,18.23
2019-02-20T01:38:03.466Z,18.23
2019-02-20T01:40:32.285Z,17.40
2019-02-20T01:43:01.106Z,16.83
2019-02-20T01:45:29.946Z,16.13
2019-02-20T01:47:59.117Z,17.60
2019-02-20T01:50:27.958Z,16.57
2019-02-20T01:52:56.800Z,15.57
2019-02-20T01:55:25.629Z,17.90
2019-02-20T01:57:54.458Z,16.60
2019-02-20T02:00:23.298Z,16.60
2019-02-20T02:02:53.083Z,16.93
2019-02-20T02:05:22.193Z,14.30
2019-02-20T02:07:51.353Z,14.30
2019-02-20T02:10:20.469Z,15.83
2019-02-20T02:12:49.293Z,14.87
2019-02-20T02:15:20.741Z,16.27
2019-02-20T02:17:48.855Z,15.50
2019-02-20T02:20:17.784Z,14.97
2019-02-20T02:25:40.098Z,15.63
2019-02-20T02:28:09.001Z,15.40
2019-02-20T02:30:37.950Z,15.40
2019-02-20T02:33:06.783Z,14.33
2019-02-20T02:35:35.625Z,15.27
2019-02-20T02:38:04.910Z,15.83
2019-02-20T02:40:34.394Z,14.93
2019-02-20T02:43:03.290Z,16.00
2019-02-20T02:45:32.129Z,15.90
2019-02-20T02:48:00.975Z,15.17
2019-02-20T02:50:30.142Z,15.97
2019-02-20T02:52:59.242Z,16.23
2019-02-20T02:55:28.239Z,18.10
2019-02-20T02:57:57.301Z,17.17
2019-02-20T03:00:26.226Z,16.40
2019-02-20T03:02:55.189Z,17.83
2019-02-20T03:05:24.026Z,15.63
2019-02-20T03:07:52.929Z,16.40
2019-02-20T03:10:21.761Z,15.83
2019-02-20T03:12:50.675Z,16.93
2019-02-20T03:15:19.550Z,17.67
2019-02-20T03:17:48.390Z,19.20
2019-02-20T03:20:17.215Z,17.70
2019-02-20T03:22:46.321Z,17.93
2019-02-20T03:25:15.145Z,19.03
2019-02-20T03:27:43.978Z,18.17
2019-02-20T03:30:13.204Z,18.70
2019-02-20T03:32:42.278Z,17.80
2019-02-20T03:35:11.577Z,17.00
2019-02-20T03:37:40.442Z,18.13
2019-02-20T03:40:09.926Z,17.13
2019-02-20T03:42:38.811Z,17.77
2019-02-20T03:45:08.478Z,17.67
2019-02-20T03:47:37.570Z,16.73
2019-02-20T03:50:06.581Z,17.20
2019-02-20T03:52:35.761Z,16.77
2019-02-20T03:55:05.097Z,16.27
2019-02-20T03:57:34.274Z,16.37
2019-02-20T04:00:03.285Z,17.40
2019-02-20T04:02:32.553Z,17.03
2019-02-20T04:05:01.378Z,19.30
2019-02-20T04:07:30.263Z,17.27
2019-02-20T04:09:59.419Z,17.70
2019-02-20T04:12:28.431Z,17.60
2019-02-20T04:14:57.424Z,19.00
2019-02-20T04:17:26.444Z,18.50
2019-02-20T04:19:55.302Z,19.07
2019-02-20T04:22:24.402Z,18.07
2019-02-20T04:24:53.447Z,19.40
2019-02-20T04:27:22.395Z,19.30
2019-02-20T04:29:51.329Z,20.57
2019-02-20T04:32:20.272Z,21.00
2019-02-20T04:34:49.192Z,21.17
2019-02-20T04:37:18.114Z,21.43
2019-02-20T04:39:46.957Z,20.13
2019-02-20T04:42:15.792Z,21.67
2019-02-20T04:44:44.615Z,21.60
2019-02-20T04:47:13.522Z,21.90
2019-02-20T04:49:42.417Z,21.43
2019-02-20T04:52:11.254Z,21.17
2019-02-20T04:54:40.085Z,20.90
2019-02-20T04:57:09.077Z,20.70
2019-02-20T04:59:38.001Z,20.57
2019-02-20T05:02:07.097Z,21.93
2019-02-20T05:04:35.937Z,21.33
2019-02-20T05:07:04.838Z,19.47
2019-02-20T05:09:33.690Z,21.43
2019-02-20T05:12:02.533Z,19.47
2019-02-20T05:14:31.373Z,20.87
2019-02-20T05:17:00.467Z,20.33
2019-02-20T05:19:29.299Z,19.90
2019-02-20T05:21:58.440Z,20.03
2019-02-20T05:24:27.270Z,20.63
2019-02-20T05:26:56.241Z,20.50
2019-02-20T05:29:25.333Z,21.17
2019-02-20T05:31:54.522Z,20.60
2019-02-20T05:34:23.611Z,20.73
2019-02-20T05:36:52.707Z,21.30
2019-02-20T05:39:22.118Z,21.20
2019-02-20T05:41:51.285Z,20.10
2019-02-20T05:44:20.126Z,21.40
2019-02-20T05:46:48.961Z,21.70
2019-02-20T05:49:17.786Z,21.33
2019-02-20T05:51:46.609Z,20.50
2019-02-20T05:54:15.898Z,20.13
2019-02-20T05:56:44.717Z,20.40
2019-02-20T05:59:13.557Z,20.57
2019-02-20T06:01:42.397Z,20.90
2019-02-20T06:04:11.250Z,21.83
2019-02-20T06:06:40.069Z,20.30
2019-02-20T06:09:08.905Z,19.73
2019-02-20T06:11:37.982Z,19.80
2019-02-20T06:14:06.813Z,19.63
2019-02-20T06:16:35.949Z,20.77
2019-02-20T06:19:04.792Z,20.43
2019-02-20T06:21:33.606Z,19.60
2019-02-20T06:24:02.455Z,17.43
2019-02-20T06:26:31.269Z,23.80
2019-02-20T06:29:00.178Z,26.37
2019-02-20T06:31:28.994Z,20.73
2019-02-20T06:33:57.909Z,23.27
2019-02-20T06:36:26.798Z,21.70
2019-02-20T06:38:55.717Z,20.30
2019-02-20T06:41:24.529Z,19.77
2019-02-20T06:43:53.353Z,20.90
2019-02-20T06:46:22.178Z,19.90
2019-02-20T06:48:51.018Z,19.83
2019-02-20T06:51:19.842Z,21.67
2019-02-20T06:53:48.702Z,20.07
2019-02-20T06:56:17.534Z,20.93
2019-02-20T06:58:46.399Z,20.57
2019-02-20T07:01:15.239Z,20.83
2019-02-20T07:03:44.127Z,21.87
2019-02-20T07:06:33.534Z,20.63
2019-02-20T07:09:43.810Z,19.80
2019-02-20T07:12:36.806Z,21.60
2019-02-20T07:15:30.881Z,21.30
2019-02-20T07:18:40.963Z,22.67
2019-02-20T07:21:54.178Z,21.87
2019-02-20T07:25:02.990Z,21.53
2019-02-20T07:28:09.669Z,21.63
2019-02-20T07:30:38.509Z,20.30
2019-02-20T07:33:07.491Z,23.40
2019-02-20T07:35:36.347Z,22.13
2019-02-20T07:38:05.189Z,22.40
2019-02-20T07:40:34.041Z,25.40
2019-02-20T07:43:02.903Z,24.07
2019-02-20T07:45:31.767Z,24.00
2019-02-20T07:48:00.676Z,23.03
2019-02-20T07:50:29.618Z,24.60
2019-02-20T07:52:58.556Z,25.93
2019-02-20T07:55:27.439Z,24.57
2019-02-20T07:57:56.309Z,24.67
2019-02-20T08:00:25.271Z,25.00
2019-02-20T08:02:54.190Z,26.50
2019-02-20T08:05:23.139Z,28.83
2019-02-20T08:07:52.250Z,28.40
2019-02-20T08:10:21.203Z,29.70
2019-02-20T08:12:50.064Z,27.27
2019-02-20T08:15:19.073Z,28.60
2019-02-20T08:17:47.928Z,28.80
2019-02-20T08:20:16.876Z,26.37
2019-02-20T08:22:45.747Z,24.73
2019-02-20T08:25:22.433Z,24.67
2019-02-20T08:27:45.334Z,24.53
2019-02-20T08:30:15.825Z,23.23
2019-02-20T08:32:44.679Z,23.90
2019-02-20T08:35:13.822Z,24.20
2019-02-20T08:37:42.738Z,22.27
2019-02-20T08:40:13.818Z,21.67
2019-02-20T08:42:43.063Z,20.87
2019-02-20T08:45:15.165Z,22.17
2019-02-20T08:47:44.412Z,21.77
2019-02-20T08:50:13.901Z,20.93
2019-02-20T08:52:43.396Z,20.37
2019-02-20T08:55:12.398Z,21.00
2019-02-20T08:57:41.246Z,21.97
2019-02-20T09:00:12.445Z,20.50
2019-02-20T09:02:41.459Z,22.60
2019-02-20T09:05:10.497Z,20.13
2019-02-20T09:07:39.337Z,21.60
2019-02-20T09:10:08.983Z,21.93
2019-02-20T09:12:37.828Z,21.50
2019-02-20T09:15:07.386Z,21.63
2019-02-20T09:17:36.225Z,21.00
2019-02-20T09:20:05.745Z,20.97
2019-02-20T09:22:34.645Z,23.20
2019-02-20T09:25:03.589Z,22.03
2019-02-20T09:27:32.497Z,21.77
2019-02-20T09:30:01.318Z,22.07
2019-02-20T09:32:30.160Z,22.17
2019-02-20T09:34:59.221Z,23.07
2019-02-20T09:37:28.065Z,24.33
2019-02-20T09:39:57.121Z,22.70
2019-02-20T09:42:26.261Z,24.97
2019-02-20T09:44:55.173Z,21.90
2019-02-20T09:47:24.114Z,24.00
2019-02-20T09:49:52.967Z,22.07
2019-02-20T09:52:21.926Z,21.70
2019-02-20T09:54:50.845Z,24.00
2019-02-20T09:57:19.769Z,20.77
2019-02-20T09:59:48.692Z,24.93
2019-02-20T10:02:17.604Z,21.67
2019-02-20T10:04:46.445Z,25.63
2019-02-20T10:07:15.274Z,24.13
2019-02-20T10:09:44.494Z,26.00
2019-02-20T10:12:13.377Z,26.23
2019-02-20T10:14:42.222Z,24.93
2019-02-20T10:17:11.407Z,29.27
2019-02-20T10:19:40.254Z,27.30
2019-02-20T10:22:09.300Z,27.63
2019-02-20T10:24:38.512Z,25.93
2019-02-20T10:27:07.727Z,28.60
2019-02-20T10:29:36.611Z,27.57
2019-02-20T10:32:05.677Z,27.47
2019-02-20T10:34:34.685Z,26.50
2019-02-20T10:37:04.017Z,27.90
2019-02-20T10:39:33.245Z,27.93
2019-02-20T10:42:02.365Z,23.50
2019-02-20T10:44:31.269Z,30.97
2019-02-20T10:47:00.466Z,28.03
2019-02-20T10:49:29.373Z,28.23
2019-02-20T10:51:58.209Z,30.73
2019-02-20T10:54:27.057Z,27.23
2019-02-20T10:56:56.190Z,27.67
2019-02-20T10:59:25.130Z,26.47
2019-02-20T11:01:55.956Z,31.43
2019-02-20T11:04:24.941Z,26.50
2019-02-20T11:06:54.173Z,28.40
2019-02-20T11:09:23.081Z,27.20
2019-02-20T11:11:51.974Z,24.77
2019-02-20T11:14:20.891Z,26.20
2019-02-20T11:16:49.723Z,23.53
2019-02-20T11:19:18.850Z,25.00
2019-02-20T11:21:47.872Z,24.37
2019-02-20T11:24:17.919Z,26.50
2019-02-20T11:26:54.256Z,21.40
2019-02-20T11:29:17.978Z,19.07
2019-02-20T11:31:47.227Z,20.83
2019-02-20T11:34:16.134Z,20.00
2019-02-20T11:36:44.973Z,21.20
2019-02-20T11:39:13.939Z,22.10
2019-02-20T11:41:43.386Z,21.60
2019-02-20T11:44:20.640Z,20.63
2019-02-20T11:46:44.640Z,17.57
2019-02-20T11:49:13.629Z,18.10
2019-02-20T11:51:42.470Z,18.20
2019-02-20T11:54:11.778Z,18.33
2019-02-20T11:56:40.694Z,18.57
2019-02-20T11:59:10.108Z,18.67
2019-02-20T12:01:39.469Z,19.67
2019-02-20T12:04:09.492Z,19.77
2019-02-20T12:06:39.166Z,21.10
2019-02-20T12:09:09.225Z,21.20
2019-02-20T12:11:39.706Z,20.63
2019-02-20T12:14:08.714Z,22.20
2019-02-20T12:16:37.950Z,20.47
2019-02-20T12:19:08.330Z,22.20
2019-02-20T12:21:37.314Z,23.47
2019-02-20T12:24:06.437Z,21.53
2019-02-20T12:26:35.472Z,18.87
2019-02-20T12:29:04.566Z,17.23
2019-02-20T12:31:33.558Z,16.33
2019-02-20T12:34:02.459Z,15.13
2019-02-20T12:36:31.293Z,13.90
2019-02-20T12:39:00.126Z,14.13
2019-02-20T12:41:30.256Z,14.93
2019-02-20T12:43:59.281Z,14.07
2019-02-20T12:46:28.288Z,13.83
2019-02-20T12:48:57.137Z,14.03
2019-02-20T12:51:26.319Z,13.73
2019-02-20T12:53:55.234Z,17.53
2019-02-20T12:56:24.275Z,16.50
2019-02-20T12:58:53.140Z,16.97
2019-02-20T13:01:41.206Z,15.27
2019-02-20T13:04:10.282Z,14.07
2019-02-20T13:06:39.133Z,15.10
2019-02-20T13:09:12.737Z,13.70
2019-02-20T13:11:41.626Z,16.10
2019-02-20T13:14:10.932Z,14.20
2019-02-20T13:16:39.951Z,14.43
2019-02-20T13:19:08.955Z,13.90
2019-02-20T13:21:38.079Z,12.47
2019-02-20T13:24:07.094Z,14.07
2019-02-20T13:26:36.135Z,15.20
2019-02-20T13:29:05.538Z,13.80
2019-02-20T13:31:34.898Z,13.80
2019-02-20T13:34:03.817Z,14.23
2019-02-20T13:36:32.770Z,14.73
2019-02-20T13:39:01.606Z,13.30
2019-02-20T13:41:30.923Z,13.77
2019-02-20T13:43:59.806Z,13.67
2019-02-20T13:46:29.289Z,12.47
2019-02-20T13:48:58.145Z,14.03
2019-02-20T13:51:27.053Z,12.53
2019-02-20T13:53:56.203Z,13.43
2019-02-20T13:56:25.673Z,12.77
2019-02-20T13:58:54.653Z,13.27
2019-02-20T14:01:23.713Z,13.00
2019-02-20T14:03:53.339Z,14.43
2019-02-20T14:06:22.437Z,14.40
2019-02-20T14:08:51.716Z,12.43
2019-02-20T14:11:20.660Z,14.67
2019-02-20T14:13:49.726Z,12.90
2019-02-20T14:16:18.653Z,13.63
2019-02-20T14:18:47.581Z,13.50
2019-02-20T14:21:16.610Z,14.73
2019-02-20T14:23:45.936Z,13.67
2019-02-20T14:26:14.808Z,14.57
2019-02-20T14:28:43.797Z,16.43
2019-02-20T14:31:12.631Z,14.47
2019-02-20T14:33:41.554Z,14.00
2019-02-20T14:36:10.692Z,13.33
2019-02-20T14:38:39.705Z,13.63
2019-02-20T14:41:08.917Z,15.03
2019-02-20T14:43:37.758Z,13.63
2019-02-20T14:46:06.677Z,15.30
2019-02-20T14:48:35.537Z,13.80
2019-02-20T14:51:04.575Z,13.53
2019-02-20T14:53:33.857Z,14.97
2019-02-20T14:56:03.263Z,13.83
2019-02-20T14:58:32.283Z,13.17
2019-02-20T15:01:01.179Z,12.87
2019-02-20T15:03:31.571Z,14.23
2019-02-20T15:06:00.846Z,15.20
2019-02-20T15:08:29.782Z,14.93
2019-02-20T15:10:59.162Z,14.70
2019-02-20T15:13:28.559Z,13.57
2019-02-20T15:15:57.536Z,13.20
2019-02-20T15:18:26.450Z,14.27
2019-02-20T15:20:55.397Z,14.77
2019-02-20T15:23:24.497Z,14.33
2019-02-20T15:25:53.418Z,14.03
2019-02-20T15:28:22.608Z,13.47
2019-02-20T15:30:51.803Z,14.20
2019-02-20T15:33:20.703Z,12.97
2019-02-20T15:35:49.651Z,12.77
2019-02-20T15:38:18.527Z,13.90
2019-02-20T15:40:47.793Z,13.77
2019-02-20T15:43:17.097Z,13.60
2019-02-20T15:45:46.301Z,14.07
2019-02-20T15:48:23.024Z,13.27
2019-02-20T15:50:45.709Z,12.83
2019-02-20T15:53:14.629Z,13.60
2019-02-20T15:55:43.826Z,13.20
2019-02-20T15:58:12.729Z,13.63
2019-02-20T16:00:41.962Z,13.43
2019-02-20T16:03:10.956Z,13.70
2019-02-20T16:05:40.185Z,12.60
2019-02-20T16:08:09.321Z,14.43
2019-02-20T16:10:38.193Z,13.40
2019-02-20T16:13:07.175Z,14.30
2019-02-20T16:15:37.117Z,14.07
2019-02-20T16:18:06.217Z,14.07
2019-02-20T16:20:35.210Z,15.53
2019-02-20T16:23:04.117Z,15.20
2019-02-20T16:25:33.046Z,12.40
2019-02-20T16:28:01.996Z,12.90
2019-02-20T16:30:31.150Z,14.10
2019-02-20T16:33:00.808Z,13.73
2019-02-20T16:35:30.102Z,14.00
2019-02-20T16:37:58.945Z,13.40
2019-02-20T16:40:27.808Z,14.57
2019-02-20T16:42:56.751Z,12.33
2019-02-20T16:45:25.965Z,12.97
2019-02-20T16:47:55.355Z,11.53
2019-02-20T16:50:24.430Z,13.30
2019-02-20T16:52:53.346Z,16.43
2019-02-20T16:55:22.800Z,14.50
2019-02-20T16:57:56.593Z,17.10
2019-02-20T17:00:23.244Z,15.43
2019-02-20T17:02:52.744Z,14.70
2019-02-20T17:05:21.646Z,14.97
2019-02-20T17:07:50.643Z,15.07
2019-02-20T17:10:19.587Z,15.23
2019-02-20T17:12:48.605Z,15.20
2019-02-20T17:15:17.693Z,16.60
2019-02-20T17:17:46.841Z,16.60
2019-02-20T17:20:17.622Z,14.37
2019-02-20T17:22:47.353Z,16.23
2019-02-20T17:25:17.225Z,14.43
2019-02-20T17:27:46.317Z,15.40
2019-02-20T17:30:34.383Z,15.80
2019-02-20T17:33:03.376Z,15.20
2019-02-20T17:35:32.367Z,15.03
2019-02-20T17:38:01.415Z,13.90
2019-02-20T17:40:30.548Z,13.77
2019-02-20T17:42:59.473Z,13.73
2019-02-20T17:45:28.603Z,15.90
2019-02-20T17:47:57.689Z,17.07
2019-02-20T17:50:26.624Z,16.10
2019-02-20T17:52:56.589Z,18.13
2019-02-20T17:55:25.501Z,15.63
2019-02-20T17:57:54.534Z,16.67
2019-02-20T18:00:26.037Z,14.83
2019-02-20T18:02:54.962Z,17.17
2019-02-20T18:05:24.094Z,17.57
2019-02-20T18:07:53.145Z,17.20
2019-02-20T18:10:22.054Z,17.27
2019-02-20T18:12:51.023Z,18.27
2019-02-20T18:15:20.126Z,16.50
2019-02-20T18:17:49.003Z,17.57
2019-02-20T18:20:17.930Z,17.40
2019-02-20T18:22:46.841Z,18.17
2019-02-20T18:25:15.746Z,18.43
2019-02-20T18:27:44.586Z,18.63
2019-02-20T18:30:13.628Z,17.93
2019-02-20T18:32:42.615Z,20.43
2019-02-20T18:35:11.655Z,20.83
2019-02-20T18:37:40.576Z,19.27
2019-02-20T18:40:10.203Z,19.47
2019-02-20T18:42:39.051Z,18.27
2019-02-20T18:45:09.649Z,21.00
2019-02-20T18:47:38.681Z,21.23
2019-02-20T18:50:08.609Z,20.70
2019-02-20T18:52:37.601Z,21.07
2019-02-20T18:55:07.699Z,23.17
2019-02-20T18:57:36.598Z,21.60
2019-02-20T19:00:08.057Z,21.80
2019-02-20T19:02:37.130Z,25.27
2019-02-20T19:05:06.517Z,22.37
2019-02-20T19:07:35.623Z,23.47
2019-02-20T19:10:06.960Z,26.37
2019-02-20T19:13:14.483Z,30.60
2019-02-20T19:16:39.809Z,28.97
2019-02-20T19:19:32.136Z,27.50
2019-02-20T19:22:42.384Z,29.80
2019-02-20T19:25:48.630Z,31.17
2019-02-20T19:28:29.194Z,27.17
2019-02-20T19:31:31.996Z,28.23
2019-02-20T19:34:25.493Z,27.77
2019-02-20T19:37:40.327Z,26.57
2019-02-20T19:40:38.005Z,27.30
2019-02-20T19:43:27.662Z,26.10
2019-02-20T19:46:30.997Z,26.43
2019-02-20T19:49:41.482Z,26.10
2019-02-20T19:52:35.726Z,25.30
2019-02-20T19:55:36.006Z,25.23
2019-02-20T19:58:35.573Z,24.50
2019-02-20T20:01:40.205Z,23.07
2019-02-20T20:04:27.616Z,22.20
2019-02-20T20:07:49.135Z,21.47
2019-02-20T20:10:44.240Z,20.80
2019-02-20T20:13:37.714Z,19.53
2019-02-20T20:16:30.241Z,38.13
2019-02-20T20:19:35.279Z,25.83
2019-02-20T20:22:42.619Z,20.93
2019-02-20T20:25:24.538Z,20.33
2019-02-20T20:28:14.762Z,20.90
2019-02-20T20:31:09.578Z,20.60
2019-02-20T20:34:13.626Z,19.57
2019-02-20T20:37:19.926Z,19.40
2019-02-20T20:40:32.910Z,22.13
2019-02-20T20:43:37.493Z,18.90
2019-02-20T20:46:35.459Z,18.77
2019-02-20T20:49:33.717Z,20.03
2019-02-20T20:52:40.162Z,19.20
2019-02-20T20:55:41.713Z,20.17
2019-02-20T20:58:45.855Z,19.07
2019-02-20T21:01:55.027Z,20.63
2019-02-20T21:04:43.202Z,18.43
2019-02-20T21:07:43.742Z,18.87
2019-02-20T21:10:56.760Z,19.17
2019-02-20T21:14:05.714Z,19.37
2019-02-20T21:16:57.246Z,19.27
2019-02-20T21:19:51.548Z,19.17
2019-02-20T21:22:53.788Z,18.80
2019-02-20T21:25:58.769Z,19.30
2019-02-20T21:29:29.919Z,17.87
2019-02-20T21:32:35.762Z,18.87
2019-02-20T21:35:58.367Z,21.50
2019-02-20T21:39:06.813Z,18.53
2019-02-20T21:41:53.199Z,19.87
2019-02-20T21:44:39.957Z,19.13
2019-02-20T21:47:43.970Z,18.97
2019-02-20T21:50:47.105Z,18.00
2019-02-20T21:53:52.918Z,17.57
2019-02-20T21:56:29.909Z,16.17
2019-02-20T21:59:10.345Z,16.73
2019-02-20T22:02:26.457Z,17.87
2019-02-20T22:05:20.469Z,18.47
2019-02-20T22:08:19.670Z,16.07
2019-02-20T22:11:10.682Z,16.83
2019-02-20T22:14:26.329Z,16.53
2019-02-20T22:17:37.852Z,17.77
2019-02-20T22:20:22.492Z,16.70
2019-02-20T22:23:44.609Z,18.13
2019-02-20T22:26:40.231Z,16.43
2019-02-20T22:29:53.236Z,16.27
2019-02-20T22:33:04.174Z,18.33
2019-02-20T22:36:04.368Z,17.23
2019-02-20T22:39:19.716Z,17.70
2019-02-20T22:42:13.597Z,17.73
2019-02-20T22:45:05.891Z,19.43
2019-02-20T22:48:15.748Z,16.30
2019-02-20T22:51:33.271Z,17.37
2019-02-20T22:54:49.463Z,14.53
2019-02-20T22:57:48.857Z,15.10
2019-02-20T23:00:57.782Z,15.57
2019-02-20T23:03:49.885Z,16.50
2019-02-20T23:07:03.354Z,16.73
2019-02-20T23:10:16.441Z,16.03
2019-02-20T23:13:26.362Z,17.30
2019-02-20T23:15:55.211Z,17.00
2019-02-20T23:18:24.125Z,16.17
2019-02-20T23:20:53.066Z,17.67
2019-02-20T23:23:21.928Z,17.43
2019-02-20T23:25:50.802Z,16.67
2019-02-20T23:28:19.666Z,16.57
2019-02-20T23:30:48.534Z,18.00
2019-02-20T23:33:17.667Z,17.30
2019-02-20T23:35:46.585Z,17.20
2019-02-20T23:38:15.504Z,18.23
2019-02-20T23:40:44.367Z,18.60
2019-02-20T23:43:13.359Z,18.50
2019-02-20T23:45:42.221Z,18.63
2019-02-20T23:48:11.197Z,17.80
2019-02-20T23:50:40.330Z,20.07
2019-02-20T23:53:09.402Z,17.60
2019-02-20T23:55:38.241Z,19.50
2019-02-20T23:58:07.769Z,18.90
